Time;durP1;ratioP1;P1;durP2;ratioP2;P2;SDS_P1;SDS_P2;PMS_P1;PMS_P2;Temp;Humidity;BMP_temperature;BMP_pressure;BME280_temperature;BME280_humidity;BME280_pressure;Samples;Min_cycle;Max_cycle;Signal;HPM_P1;HPM_P2
2024/03/12 00:02:07;;;;;;;4.20;3.80;;;8.50;99.90;;;;;;5073880;28;20452;-81
2024/03/12 00:04:35;;;;;;;4.13;3.73;;;8.60;99.90;;;;;;5071519;28;20473;-84
2024/03/12 00:07:06;;;;;;;7.57;5.33;;;8.60;99.90;;;;;;5068441;28;20449;-79
2024/03/12 00:09:37;;;;;;;9.03;7.60;;;8.60;99.90;;;;;;5075760;28;20533;-80
2024/03/12 00:12:06;;;;;;;12.53;7.30;;;8.70;99.90;;;;;;5074953;28;20457;-82
2024/03/12 00:14:34;;;;;;;8.17;7.17;;;8.60;99.90;;;;;;5070304;28;20438;-82
2024/03/12 00:17:02;;;;;;;8.40;7.13;;;8.40;99.90;;;;;;5074504;28;20545;-82
2024/03/12 00:19:33;;;;;;;7.03;5.90;;;8.30;99.90;;;;;;5077009;28;20466;-82
2024/03/12 00:22:02;;;;;;;9.53;6.13;;;8.20;99.90;;;;;;5076123;28;20471;-82
2024/03/12 00:24:30;;;;;;;7.90;6.27;;;8.10;99.90;;;;;;5077241;28;20529;-81
2024/03/12 00:27:00;;;;;;;6.93;6.07;;;8.10;99.90;;;;;;5077395;28;20447;-81
2024/03/12 00:29:28;;;;;;;5.43;5.03;;;8.10;99.90;;;;;;5071899;28;20488;-83
2024/03/12 00:31:57;;;;;;;5.10;4.60;;;8.00;99.90;;;;;;5073789;28;20481;-80
2024/03/12 00:34:26;;;;;;;5.83;4.37;;;8.00;99.90;;;;;;5066212;28;20430;-81
2024/03/12 00:36:54;;;;;;;4.63;4.13;;;7.90;99.90;;;;;;5072419;28;21041;-82
2024/03/12 00:39:23;;;;;;;4.27;3.97;;;8.00;99.90;;;;;;5072764;28;20908;-80
2024/03/12 00:41:51;;;;;;;4.20;3.90;;;8.00;99.90;;;;;;5080854;28;20477;-82
2024/03/12 00:44:21;;;;;;;3.93;3.60;;;8.00;99.90;;;;;;5079837;28;21021;-81
2024/03/12 00:46:50;;;;;;;3.63;3.40;;;8.00;99.90;;;;;;5071921;28;20454;-81
2024/03/12 00:49:18;;;;;;;4.50;4.13;;;8.10;99.90;;;;;;5066875;28;20549;-80
2024/03/12 00:51:48;;;;;;;3.80;3.40;;;8.10;99.90;;;;;;5071483;28;20464;-83
2024/03/12 00:54:17;;;;;;;3.30;3.03;;;8.10;99.90;;;;;;5076343;28;20462;-82
2024/03/12 00:56:46;;;;;;;4.00;3.70;;;8.10;99.90;;;;;;5071123;28;20554;-81
2024/03/12 00:59:14;;;;;;;3.30;3.10;;;8.00;99.90;;;;;;5074942;28;20456;-83
2024/03/12 01:01:44;;;;;;;4.07;3.87;;;7.90;99.90;;;;;;5065192;28;20573;-81
2024/03/12 01:04:16;;;;;;;3.73;3.47;;;7.90;99.90;;;;;;5071931;28;20546;-80
2024/03/12 01:06:44;;;;;;;3.27;3.07;;;7.80;99.90;;;;;;5065985;28;20545;-81
2024/03/12 01:09:13;;;;;;;3.67;3.47;;;7.70;99.90;;;;;;5073677;28;20903;-81
2024/03/12 01:11:41;;;;;;;7.10;5.03;;;7.70;99.90;;;;;;5071511;28;20455;-81
2024/03/12 01:14:09;;;;;;;6.50;4.70;;;7.80;99.90;;;;;;5075707;28;20573;-82
2024/03/12 01:16:37;;;;;;;4.50;4.10;;;7.90;99.90;;;;;;5080248;28;20457;-84
2024/03/12 01:19:07;;;;;;;3.30;3.10;;;8.00;99.90;;;;;;5071226;28;20477;-82
2024/03/12 01:21:36;;;;;;;4.10;3.80;;;8.00;99.90;;;;;;5079873;28;20485;-82
2024/03/12 01:24:04;;;;;;;3.10;2.90;;;8.10;99.90;;;;;;5080995;28;20856;-83
2024/03/12 01:26:34;;;;;;;2.80;2.60;;;8.00;99.90;;;;;;5076934;28;20484;-82
2024/03/12 01:29:03;;;;;;;4.03;3.73;;;8.00;99.90;;;;;;5079314;28;20468;-83
2024/03/12 01:31:32;;;;;;;3.00;2.70;;;8.10;99.90;;;;;;5081007;28;20458;-82
2024/03/12 01:34:00;;;;;;;4.37;3.00;;;8.10;99.90;;;;;;5073650;28;20461;-82
2024/03/12 01:36:34;;;;;;;2.73;2.63;;;8.10;99.90;;;;;;5073092;28;20450;-82
2024/03/12 01:39:07;;;;;;;2.57;2.47;;;8.10;99.90;;;;;;5078920;28;20464;-82
2024/03/12 01:41:41;;;;;;;2.70;2.50;;;8.00;99.90;;;;;;5078257;28;20444;-80
2024/03/12 01:44:09;;;;;;;2.73;2.47;;;8.10;99.90;;;;;;5078752;28;20489;-84
2024/03/12 01:46:39;;;;;;;2.80;2.60;;;8.10;99.90;;;;;;5069707;28;20480;-80
2024/03/12 01:49:09;;;;;;;2.40;2.30;;;8.10;99.90;;;;;;5075240;28;20483;-80
2024/03/12 01:51:39;;;;;;;2.30;2.20;;;8.10;99.90;;;;;;5075220;28;20449;-83
2024/03/12 01:54:08;;;;;;;2.57;2.40;;;8.10;99.90;;;;;;5079633;28;20456;-80
2024/03/12 01:56:37;;;;;;;2.30;2.10;;;8.00;99.90;;;;;;5076020;28;20453;-82
2024/03/12 01:59:05;;;;;;;2.40;2.20;;;8.00;99.90;;;;;;5075488;28;20474;-81
2024/03/12 02:01:33;;;;;;;2.73;2.63;;;7.90;99.90;;;;;;5071787;28;20458;-83
2024/03/12 02:04:02;;;;;;;5.07;4.77;;;7.90;99.90;;;;;;5075847;28;20442;-80
2024/03/12 02:06:30;;;;;;;2.83;2.63;;;7.90;99.90;;;;;;5071041;28;21013;-81
2024/03/12 02:09:03;;;;;;;2.30;2.10;;;8.00;99.90;;;;;;5074532;28;20482;-81
2024/03/12 02:11:31;;;;;;;2.33;2.13;;;8.00;99.90;;;;;;5075858;28;20460;-83
2024/03/12 02:13:59;;;;;;;2.50;2.40;;;7.90;99.90;;;;;;5074844;28;20525;-82
2024/03/12 02:16:28;;;;;;;2.57;2.00;;;7.90;99.90;;;;;;5072671;28;20462;-82
2024/03/12 02:18:56;;;;;;;3.30;2.13;;;8.00;99.90;;;;;;5075434;28;20556;-81
2024/03/12 02:21:24;;;;;;;2.50;2.30;;;8.00;99.90;;;;;;5073800;28;20438;-81
2024/03/12 02:23:54;;;;;;;2.27;2.17;;;8.00;99.90;;;;;;5070538;28;20457;-80
2024/03/12 02:26:24;;;;;;;2.20;2.10;;;8.00;99.90;;;;;;5071869;28;20478;-79
2024/03/12 02:28:52;;;;;;;2.03;1.93;;;8.10;99.90;;;;;;5075226;28;20484;-80
2024/03/12 02:31:21;;;;;;;3.00;2.80;;;8.10;99.90;;;;;;5075320;28;20462;-79
2024/03/12 02:33:49;;;;;;;2.13;2.03;;;8.00;99.90;;;;;;5075790;28;20955;-80
2024/03/12 02:36:20;;;;;;;2.70;2.50;;;8.10;99.90;;;;;;5072901;28;20720;-78
2024/03/12 02:38:49;;;;;;;2.20;2.10;;;8.20;99.90;;;;;;5055990;28;20544;-80
2024/03/12 02:41:21;;;;;;;3.43;2.43;;;8.10;99.90;;;;;;5068783;28;20477;-80
2024/03/12 02:43:51;;;;;;;2.50;2.40;;;8.00;99.90;;;;;;5073471;28;20443;-81
2024/03/12 02:46:21;;;;;;;2.40;2.20;;;8.00;99.90;;;;;;5069167;28;20568;-81
2024/03/12 02:48:51;;;;;;;2.63;2.37;;;7.90;99.90;;;;;;5067279;28;20561;-79
2024/03/12 02:51:19;;;;;;;2.60;2.40;;;7.90;99.90;;;;;;5077372;28;20450;-80
2024/03/12 02:53:47;;;;;;;2.57;2.47;;;7.80;99.90;;;;;;5072575;28;20537;-81
2024/03/12 02:56:16;;;;;;;2.27;2.17;;;7.90;99.90;;;;;;5079356;28;21092;-80
2024/03/12 02:58:47;;;;;;;4.23;2.47;;;7.90;99.90;;;;;;5074173;28;20474;-83
2024/03/12 03:01:15;;;;;;;2.80;2.40;;;7.90;99.90;;;;;;5074153;28;20989;-81
2024/03/12 03:03:44;;;;;;;2.30;2.10;;;7.80;99.90;;;;;;5068181;28;20452;-82
2024/03/12 03:06:12;;;;;;;2.43;2.33;;;7.90;99.90;;;;;;5069338;28;20487;-80
2024/03/12 03:08:40;;;;;;;2.53;2.33;;;7.90;99.90;;;;;;5070443;28;20456;-80
2024/03/12 03:11:08;;;;;;;2.23;2.03;;;7.80;99.90;;;;;;5070785;28;20480;-81
2024/03/12 03:13:36;;;;;;;2.90;2.70;;;7.80;99.90;;;;;;5079353;28;20465;-83
2024/03/12 03:16:06;;;;;;;2.57;2.47;;;7.70;99.90;;;;;;5072306;28;20532;-82
2024/03/12 03:18:35;;;;;;;2.20;2.10;;;7.80;99.90;;;;;;5074682;28;20445;-85
2024/03/12 03:21:04;;;;;;;2.60;2.40;;;7.90;99.90;;;;;;5071637;28;20811;-81
2024/03/12 03:23:34;;;;;;;2.80;2.60;;;8.10;99.90;;;;;;5073392;28;20539;-81
2024/03/12 03:26:03;;;;;;;2.60;2.43;;;8.20;99.90;;;;;;5069853;28;20473;-83
2024/03/12 03:28:31;;;;;;;2.60;1.97;;;8.20;99.90;;;;;;5081963;28;20459;-83
2024/03/12 03:30:59;;;;;;;2.37;2.27;;;8.30;99.90;;;;;;5074394;28;20545;-82
2024/03/12 03:33:31;;;;;;;3.20;2.07;;;8.30;99.90;;;;;;5071948;28;20470;-82
2024/03/12 03:36:00;;;;;;;2.30;2.20;;;8.30;99.90;;;;;;5081167;28;20470;-87
2024/03/12 03:38:28;;;;;;;2.17;2.07;;;8.40;99.90;;;;;;5081866;28;20458;-87
2024/03/12 03:40:57;;;;;;;2.67;2.47;;;8.50;99.90;;;;;;5080472;28;20572;-84
2024/03/12 03:43:26;;;;;;;2.50;2.40;;;8.40;99.90;;;;;;5080469;28;20864;-83
2024/03/12 03:45:54;;;;;;;2.90;2.70;;;8.30;99.90;;;;;;5077520;28;20467;-83
2024/03/12 03:48:23;;;;;;;2.47;2.23;;;8.50;99.90;;;;;;5068869;28;20455;-84
2024/03/12 03:50:53;;;;;;;2.50;2.30;;;8.50;99.90;;;;;;5074783;28;20501;-80
2024/03/12 03:53:21;;;;;;;3.20;2.17;;;8.50;99.90;;;;;;5078910;28;20453;-83
2024/03/12 03:55:54;;;;;;;2.10;2.00;;;8.50;99.90;;;;;;5074706;28;20444;-81
2024/03/12 03:58:23;;;;;;;2.60;2.40;;;8.50;99.90;;;;;;5073716;28;20477;-83
2024/03/12 04:00:52;;;;;;;3.03;2.87;;;8.60;99.90;;;;;;5068505;28;20558;-79
2024/03/12 04:03:20;;;;;;;2.97;2.20;;;8.70;99.90;;;;;;5081290;28;20444;-82
2024/03/12 04:05:48;;;;;;;2.60;2.40;;;8.60;99.90;;;;;;5070874;28;20548;-81
2024/03/12 04:08:18;;;;;;;2.20;2.10;;;8.80;99.90;;;;;;5065906;28;20457;-80
2024/03/12 04:10:46;;;;;;;1.97;1.87;;;8.60;99.90;;;;;;5071907;28;20579;-80
2024/03/12 04:13:15;;;;;;;2.23;2.13;;;8.60;99.90;;;;;;5073378;28;20499;-81
2024/03/12 04:15:45;;;;;;;3.37;2.10;;;8.60;99.90;;;;;;5071068;28;20494;-82
2024/03/12 04:18:13;;;;;;;2.33;2.23;;;8.50;99.90;;;;;;5072235;28;20457;-80
2024/03/12 04:20:41;;;;;;;2.47;2.27;;;8.50;99.90;;;;;;5072873;28;20512;-80
2024/03/12 04:23:10;;;;;;;2.47;1.97;;;8.50;99.90;;;;;;5075752;28;20536;-86
2024/03/12 04:25:40;;;;;;;2.50;2.30;;;8.60;99.90;;;;;;5072866;28;22080;-81
2024/03/12 04:28:09;;;;;;;2.20;2.00;;;8.60;99.90;;;;;;5071835;28;20497;-82
2024/03/12 04:30:39;;;;;;;2.60;2.50;;;8.60;99.90;;;;;;5067866;28;20467;-82
2024/03/12 04:33:07;;;;;;;3.00;2.70;;;8.70;99.90;;;;;;5069084;28;20459;-83
2024/03/12 04:35:36;;;;;;;2.17;2.07;;;8.70;99.90;;;;;;5072812;28;20547;-82
2024/03/12 04:38:04;;;;;;;2.23;2.13;;;8.70;99.90;;;;;;5069593;28;20524;-81
2024/03/12 04:40:32;;;;;;;2.10;2.00;;;8.80;99.90;;;;;;5068171;28;21073;-84
2024/03/12 04:43:03;;;;;;;2.50;2.10;;;8.60;99.90;;;;;;5072628;28;20446;-81
2024/03/12 04:45:31;;;;;;;2.33;2.13;;;8.70;99.90;;;;;;5074273;28;20479;-82
2024/03/12 04:47:59;;;;;;;2.13;2.03;;;8.70;99.90;;;;;;5074298;28;20479;-80
2024/03/12 04:50:27;;;;;;;2.60;2.47;;;8.60;99.90;;;;;;5070475;28;20464;-83
2024/03/12 04:52:55;;;;;;;2.90;2.30;;;8.60;99.90;;;;;;5074736;28;20449;-83
2024/03/12 04:55:24;;;;;;;2.10;2.00;;;8.50;99.90;;;;;;5076642;28;20461;-81
2024/03/12 04:57:52;;;;;;;2.60;2.50;;;8.60;99.90;;;;;;5080826;28;20458;-81
2024/03/12 05:00:23;;;;;;;2.50;2.40;;;8.40;99.90;;;;;;5071461;28;20474;-82
2024/03/12 05:02:54;;;;;;;2.37;2.20;;;8.40;99.90;;;;;;5070574;28;20487;-81
2024/03/12 05:05:23;;;;;;;2.50;2.30;;;8.30;99.90;;;;;;5074157;28;20481;-81
2024/03/12 05:07:52;;;;;;;2.10;2.00;;;8.40;99.90;;;;;;5071666;28;20477;-79
2024/03/12 05:10:21;;;;;;;2.40;2.30;;;8.50;99.90;;;;;;5069768;28;20478;-80
2024/03/12 05:12:51;;;;;;;2.37;2.20;;;8.60;99.90;;;;;;5068752;28;20457;-79
2024/03/12 05:15:21;;;;;;;2.20;2.10;;;8.50;99.90;;;;;;5073710;28;20455;-83
2024/03/12 05:17:52;;;;;;;2.27;2.10;;;8.40;99.90;;;;;;5073491;28;20976;-82
2024/03/12 05:20:23;;;;;;;2.40;2.20;;;8.50;99.90;;;;;;5071245;28;22312;-83
2024/03/12 05:22:52;;;;;;;2.73;2.37;;;8.50;99.90;;;;;;5072500;28;20458;-81
2024/03/12 05:25:22;;;;;;;3.53;2.80;;;8.50;99.90;;;;;;5075211;28;20578;-80
2024/03/12 05:27:51;;;;;;;2.50;2.30;;;8.50;99.90;;;;;;5069341;28;20483;-80
2024/03/12 05:30:22;;;;;;;2.80;2.70;;;8.50;99.90;;;;;;5071746;28;21055;-81
2024/03/12 05:32:53;;;;;;;2.43;2.23;;;8.50;99.90;;;;;;5070595;28;20493;-79
2024/03/12 05:35:22;;;;;;;2.17;2.07;;;8.60;99.90;;;;;;5072694;28;20454;-80
2024/03/12 05:38:02;;;;;;;2.50;2.30;;;8.60;99.90;;;;;;5073079;28;20912;-78
2024/03/12 05:40:42;;;;;;;2.70;2.60;;;8.70;99.90;;;;;;5076826;28;20221;-81
2024/03/12 05:48:49;;;;;;;2.53;2.43;;;8.80;99.90;;;;;;5069107;28;20489;-78
2024/03/12 05:51:19;;;;;;;2.67;2.57;;;8.80;99.90;;;;;;5064344;28;20449;-78
2024/03/12 05:53:48;;;;;;;2.40;2.20;;;8.80;99.90;;;;;;5071096;28;20462;-81
2024/03/12 05:56:16;;;;;;;2.43;2.20;;;8.80;99.90;;;;;;5069967;28;20554;-80
2024/03/12 05:58:46;;;;;;;2.57;2.47;;;8.80;99.90;;;;;;5067743;28;20441;-79
2024/03/12 06:01:15;;;;;;;2.50;2.30;;;8.80;99.90;;;;;;5070931;28;21378;-80
2024/03/12 06:03:45;;;;;;;2.83;2.63;;;8.80;99.90;;;;;;5071743;28;20474;-82
2024/03/12 06:06:14;;;;;;;2.90;2.67;;;8.80;99.90;;;;;;5076115;28;20508;-81
2024/03/12 06:08:44;;;;;;;2.33;2.23;;;8.90;99.90;;;;;;5072684;28;21163;-81
2024/03/12 06:11:13;;;;;;;4.20;3.13;;;8.80;99.90;;;;;;5076088;28;20457;-82
2024/03/12 06:13:43;;;;;;;3.23;2.57;;;8.80;99.90;;;;;;5071199;28;20520;-79
2024/03/12 06:16:12;;;;;;;3.00;2.80;;;8.80;99.90;;;;;;5071700;28;20476;-78
2024/03/12 06:18:40;;;;;;;2.80;2.60;;;8.90;99.90;;;;;;5075996;28;20537;-82
2024/03/12 06:21:10;;;;;;;3.20;2.90;;;8.90;99.90;;;;;;5068298;28;20537;-81
2024/03/12 06:23:39;;;;;;;3.33;2.60;;;8.90;99.90;;;;;;5069052;28;20461;-85
2024/03/12 06:26:08;;;;;;;2.73;2.63;;;8.90;99.90;;;;;;5070441;28;20442;-83
2024/03/12 06:28:37;;;;;;;2.77;2.57;;;8.90;99.90;;;;;;5066707;28;20510;-82
2024/03/12 06:31:06;;;;;;;2.80;2.60;;;8.90;99.90;;;;;;5075415;28;20457;-82
2024/03/12 06:33:34;;;;;;;3.10;2.90;;;8.90;99.90;;;;;;5071224;28;20835;-82
2024/03/12 06:36:04;;;;;;;2.47;2.33;;;9.00;99.90;;;;;;5067814;28;20536;-82
2024/03/12 06:38:34;;;;;;;3.00;2.90;;;9.00;99.90;;;;;;5071663;28;20594;-78
2024/03/12 06:41:05;;;;;;;2.63;2.47;;;8.90;99.90;;;;;;5078146;28;20442;-82
2024/03/12 06:43:39;;;;;;;3.07;2.90;;;8.80;99.90;;;;;;5078083;28;20439;-80
2024/03/12 06:46:09;;;;;;;3.37;3.07;;;8.90;99.90;;;;;;5072390;28;20463;-82
2024/03/12 06:48:38;;;;;;;2.60;2.40;;;8.80;99.90;;;;;;5075354;28;20891;-82
2024/03/12 06:51:06;;;;;;;2.87;2.67;;;8.90;99.90;;;;;;5069864;28;20463;-81
2024/03/12 06:53:36;;;;;;;3.35;3.13;;;8.90;99.90;;;;;;5072578;28;20449;-80
2024/03/12 06:56:06;;;;;;;2.43;2.33;;;8.90;99.90;;;;;;5075350;28;20216;-83
2024/03/12 06:58:39;;;;;;;2.90;2.80;;;8.90;99.90;;;;;;5071662;28;20527;-80
2024/03/12 07:01:09;;;;;;;2.57;2.47;;;9.00;99.90;;;;;;5073869;28;20460;-81
2024/03/12 07:03:39;;;;;;;2.63;2.43;;;8.90;99.90;;;;;;5065499;28;20584;-82
2024/03/12 07:06:08;;;;;;;2.77;2.63;;;8.90;99.90;;;;;;5066675;28;20466;-81
2024/03/12 07:08:39;;;;;;;2.17;2.07;;;9.00;99.90;;;;;;5066848;28;20473;-80
2024/03/12 07:11:10;;;;;;;2.10;2.00;;;8.90;99.90;;;;;;5078230;28;20458;-84
2024/03/12 07:13:39;;;;;;;2.43;2.30;;;9.00;99.90;;;;;;5071741;28;20450;-82
2024/03/12 07:16:09;;;;;;;2.20;2.10;;;8.90;99.90;;;;;;5081339;28;20974;-83
2024/03/12 07:18:38;;;;;;;2.60;2.40;;;9.00;99.90;;;;;;5073273;28;20458;-78
2024/03/12 07:21:06;;;;;;;2.80;2.60;;;9.10;99.90;;;;;;5079888;28;20445;-80
2024/03/12 07:23:36;;;;;;;3.07;2.87;;;9.10;99.90;;;;;;5081262;28;20457;-81
2024/03/12 07:26:07;;;;;;;2.40;2.30;;;9.10;99.90;;;;;;5072559;28;20469;-82
2024/03/12 07:28:38;;;;;;;2.00;1.90;;;9.10;99.90;;;;;;5079226;28;20475;-81
2024/03/12 07:31:06;;;;;;;2.40;2.30;;;9.10;99.90;;;;;;5073234;28;20439;-79
2024/03/12 07:33:34;;;;;;;2.33;1.90;;;9.20;99.90;;;;;;5072831;28;20488;-81
2024/03/12 07:36:04;;;;;;;1.73;1.63;;;9.20;99.90;;;;;;5083065;28;20967;-82
2024/03/12 07:38:32;;;;;;;2.13;2.03;;;9.30;99.90;;;;;;5071041;28;20455;-80
2024/03/12 07:41:01;;;;;;;1.93;1.83;;;9.20;99.90;;;;;;5077074;28;20446;-82
2024/03/12 07:43:31;;;;;;;2.03;1.93;;;9.20;99.90;;;;;;5081217;28;20451;-88
2024/03/12 07:46:00;;;;;;;2.23;2.03;;;9.30;99.90;;;;;;5075964;28;20455;-81
2024/03/12 07:48:28;;;;;;;1.80;1.70;;;9.10;99.90;;;;;;5069739;28;20564;-80
2024/03/12 07:50:57;;;;;;;1.90;1.80;;;9.10;99.90;;;;;;5076345;28;20478;-83
2024/03/12 07:53:30;;;;;;;1.90;1.80;;;9.10;99.90;;;;;;5085367;28;20990;-85
2024/03/12 07:56:00;;;;;;;2.10;2.00;;;9.20;99.90;;;;;;5074661;28;21001;-80
2024/03/12 07:58:29;;;;;;;3.23;1.90;;;9.20;99.90;;;;;;5075496;28;20522;-80
2024/03/12 08:01:01;;;;;;;2.03;1.93;;;9.20;99.90;;;;;;5070829;28;20479;-82
2024/03/12 08:03:28;;;;;;;2.00;1.90;;;9.20;99.90;;;;;;5071116;28;20534;-84
2024/03/12 08:05:57;;;;;;;3.20;3.00;;;9.30;99.90;;;;;;5068272;28;20455;-80
2024/03/12 08:08:25;;;;;;;2.90;2.70;;;9.30;99.90;;;;;;5066357;28;20474;-82
2024/03/12 08:10:54;;;;;;;2.50;2.40;;;9.20;99.90;;;;;;5072003;28;20593;-82
2024/03/12 08:13:22;;;;;;;2.37;2.27;;;9.20;1.00;;;;;;5075623;28;20496;-79
2024/03/12 08:15:51;;;;;;;4.90;2.30;;;9.30;1.00;;;;;;5067570;28;20541;-81
2024/03/12 08:18:21;;;;;;;3.00;2.60;;;9.20;1.00;;;;;;5076957;28;20450;-81
2024/03/12 08:20:50;;;;;;;1.90;1.80;;;9.20;1.00;;;;;;5068368;28;20905;-84
2024/03/12 08:23:19;;;;;;;2.80;2.60;;;9.10;1.00;;;;;;5070646;28;20455;-84
2024/03/12 08:25:48;;;;;;;2.70;2.50;;;9.20;1.00;;;;;;5071268;28;20447;-81
2024/03/12 08:28:27;;;;;;;1.97;1.87;;;9.20;1.00;;;;;;5071507;28;20515;-81
2024/03/12 08:30:55;;;;;;;2.00;1.90;;;9.20;1.00;;;;;;5064526;28;20474;-81
2024/03/12 08:33:36;;;;;;;2.23;2.13;;;9.20;99.90;;;;;;5073553;28;20461;-83
2024/03/12 08:36:06;;;;;;;1.97;1.87;;;9.20;99.90;;;;;;5073791;28;20445;-83
2024/03/12 08:38:34;;;;;;;1.90;1.80;;;9.30;99.90;;;;;;5073382;28;20899;-81
2024/03/12 08:41:04;;;;;;;2.17;2.07;;;9.30;99.90;;;;;;5075878;28;21015;-81
2024/03/12 08:43:32;;;;;;;2.10;2.00;;;9.20;99.90;;;;;;5068691;28;20464;-81
2024/03/12 08:46:02;;;;;;;2.17;2.07;;;9.30;99.90;;;;;;5075905;28;20473;-82
2024/03/12 08:48:30;;;;;;;2.00;1.90;;;9.30;99.90;;;;;;5078052;28;20474;-80
2024/03/12 08:51:01;;;;;;;2.30;2.17;;;9.40;99.90;;;;;;5075855;28;20457;-82
2024/03/12 08:53:30;;;;;;;2.30;2.20;;;9.40;99.90;;;;;;5066432;28;20446;-83
2024/03/12 08:55:59;;;;;;;2.03;1.93;;;9.40;99.90;;;;;;5072379;28;20474;-83
2024/03/12 08:58:27;;;;;;;2.50;2.30;;;9.40;99.90;;;;;;5066106;28;20541;-83
2024/03/12 09:00:57;;;;;;;2.10;1.90;;;9.40;99.90;;;;;;5070798;28;20538;-81
2024/03/12 09:03:26;;;;;;;3.17;2.00;;;9.50;99.90;;;;;;5070753;28;20456;-86
2024/03/12 09:05:54;;;;;;;2.67;2.50;;;9.50;99.90;;;;;;5062555;28;20458;-80
2024/03/12 09:08:24;;;;;;;1.73;1.63;;;9.40;99.90;;;;;;5062404;28;20545;-78
2024/03/12 09:10:53;;;;;;;1.90;1.80;;;9.30;99.90;;;;;;5071756;28;20470;-81
2024/03/12 09:13:21;;;;;;;1.90;1.80;;;9.30;99.90;;;;;;5068810;28;20545;-81
2024/03/12 09:15:51;;;;;;;2.00;1.90;;;9.40;99.90;;;;;;5076724;28;20904;-81
2024/03/12 09:18:20;;;;;;;1.83;1.73;;;9.50;99.90;;;;;;5073430;28;20459;-82
2024/03/12 09:20:54;;;;;;;3.10;2.23;;;9.50;99.90;;;;;;5075666;28;20549;-81
2024/03/12 09:23:28;;;;;;;2.00;1.90;;;9.50;99.90;;;;;;5065377;28;20446;-90
2024/03/12 09:25:57;;;;;;;1.70;1.60;;;9.50;99.90;;;;;;5075275;28;20460;-81
2024/03/12 09:28:26;;;;;;;2.87;1.90;;;9.50;99.90;;;;;;5069303;28;20478;-86
2024/03/12 09:30:55;;;;;;;2.40;2.20;;;9.50;99.90;;;;;;5069878;28;20479;-80
2024/03/12 09:33:25;;;;;;;1.93;1.83;;;9.30;99.90;;;;;;5073148;28;20439;-81
2024/03/12 09:35:54;;;;;;;2.13;2.03;;;9.20;99.90;;;;;;5077753;28;20929;-83
2024/03/12 09:38:24;;;;;;;2.40;2.20;;;9.30;99.90;;;;;;5070055;28;20485;-84
2024/03/12 09:40:56;;;;;;;2.60;2.40;;;9.30;99.90;;;;;;5059450;28;20496;-82
2024/03/12 09:43:27;;;;;;;2.33;2.13;;;9.30;99.90;;;;;;5076714;28;20443;-84
2024/03/12 09:45:56;;;;;;;2.20;2.10;;;9.40;99.90;;;;;;5078129;28;20445;-81
2024/03/12 09:48:25;;;;;;;2.80;2.47;;;9.50;99.90;;;;;;5076836;28;20504;-82
2024/03/12 09:50:55;;;;;;;2.50;2.30;;;9.30;99.90;;;;;;5076269;28;20573;-80
2024/03/12 09:53:26;;;;;;;3.30;2.37;;;9.30;99.90;;;;;;5070891;28;20459;-80
2024/03/12 09:55:55;;;;;;;3.03;2.73;;;9.40;99.90;;;;;;5074989;28;20452;-82
2024/03/12 09:58:23;;;;;;;2.53;2.33;;;9.50;99.90;;;;;;5079779;28;20511;-82
2024/03/12 10:00:53;;;;;;;2.60;2.40;;;9.60;99.90;;;;;;5070816;28;20467;-81
2024/03/12 10:03:24;;;;;;;4.37;2.67;;;9.50;99.90;;;;;;5079188;28;20817;-81
2024/03/12 10:05:53;;;;;;;2.13;2.03;;;9.60;99.90;;;;;;5075839;28;20455;-81
2024/03/12 10:08:29;;;;;;;2.20;2.10;;;9.60;99.90;;;;;;5074369;28;20512;-82
2024/03/12 10:10:58;;;;;;;2.43;2.33;;;9.60;99.90;;;;;;5070782;28;20479;-79
2024/03/12 10:13:28;;;;;;;2.33;2.23;;;9.60;99.90;;;;;;5076138;28;20453;-82
2024/03/12 10:15:58;;;;;;;2.17;2.03;;;9.60;99.90;;;;;;5074961;28;20453;-80
2024/03/12 10:18:28;;;;;;;2.20;2.10;;;9.60;99.90;;;;;;5075197;28;20504;-82
2024/03/12 10:21:00;;;;;;;2.67;2.17;;;9.70;99.90;;;;;;5069876;28;20479;-80
2024/03/12 10:23:31;;;;;;;2.43;2.23;;;9.70;99.90;;;;;;5078295;28;20987;-83
2024/03/12 10:26:09;;;;;;;2.57;2.40;;;9.80;99.90;;;;;;5076065;28;20448;-79
2024/03/12 10:28:39;;;;;;;2.07;1.87;;;9.80;99.90;;;;;;5074643;28;20796;-82
2024/03/12 10:31:09;;;;;;;2.10;2.00;;;9.80;99.90;;;;;;5078364;28;20475;-79
2024/03/12 10:33:42;;;;;;;1.93;1.83;;;9.70;99.90;;;;;;5075765;28;20539;-78
2024/03/12 10:36:11;;;;;;;2.67;2.57;;;9.70;99.90;;;;;;5075555;28;20511;-81
2024/03/12 10:38:42;;;;;;;1.60;1.50;;;9.70;99.90;;;;;;5073383;28;20452;-80
2024/03/12 10:41:16;;;;;;;2.20;1.70;;;9.70;99.90;;;;;;5076134;28;20490;-79
2024/03/12 10:43:46;;;;;;;2.20;2.10;;;9.80;99.90;;;;;;5079964;28;20454;-81
2024/03/12 10:46:16;;;;;;;1.97;1.87;;;9.80;99.90;;;;;;5072697;28;20462;-84
2024/03/12 10:48:46;;;;;;;1.50;1.40;;;9.80;99.90;;;;;;5070551;28;20512;-83
2024/03/12 10:51:17;;;;;;;1.50;1.50;;;9.90;99.90;;;;;;5077193;28;21063;-81
2024/03/12 10:53:50;;;;;;;1.57;1.47;;;9.80;99.90;;;;;;5079293;28;20537;-81
2024/03/12 10:56:18;;;;;;;1.70;1.60;;;9.80;99.90;;;;;;5081385;28;20447;-85
2024/03/12 10:58:48;;;;;;;1.53;1.43;;;9.80;99.90;;;;;;5080697;28;20527;-82
2024/03/12 11:01:19;;;;;;;1.60;1.50;;;9.80;99.90;;;;;;5079603;28;20447;-80
2024/03/12 11:03:49;;;;;;;1.60;1.50;;;9.80;99.90;;;;;;5071378;28;20464;-84
2024/03/12 11:06:20;;;;;;;1.67;1.57;;;9.90;99.90;;;;;;5081719;28;20461;-80
2024/03/12 11:08:50;;;;;;;1.93;1.60;;;9.90;99.90;;;;;;5081484;28;21172;-80
2024/03/12 11:11:19;;;;;;;2.70;1.70;;;9.90;99.90;;;;;;5083065;28;21062;-82
2024/03/12 11:13:50;;;;;;;1.57;1.47;;;9.90;99.90;;;;;;5078766;28;20471;-81
2024/03/12 11:16:21;;;;;;;1.53;1.43;;;9.90;99.90;;;;;;5072265;28;20964;-84
2024/03/12 11:18:49;;;;;;;1.60;1.50;;;9.90;99.90;;;;;;5084788;28;20462;-82
2024/03/12 11:21:23;;;;;;;1.40;1.40;;;10.00;99.90;;;;;;5082551;28;20854;-79
2024/03/12 11:23:56;;;;;;;1.40;1.30;;;9.90;99.90;;;;;;5076166;28;20474;-85
2024/03/12 11:26:29;;;;;;;2.10;2.00;;;9.90;99.90;;;;;;5073332;28;20451;-78
2024/03/12 11:29:00;;;;;;;2.07;1.97;;;9.90;99.90;;;;;;5069661;28;20546;-81
2024/03/12 11:31:36;;;;;;;2.40;2.30;;;9.90;99.90;;;;;;5077743;28;20480;-80
2024/03/12 11:34:05;;;;;;;2.93;2.73;;;9.90;99.90;;;;;;5077234;28;20481;-80
2024/03/12 11:36:45;;;;;;;3.90;3.30;;;10.00;99.90;;;;;;5070276;28;20453;-81
2024/03/12 11:39:29;;;;;;;4.03;3.23;;;9.90;99.90;;;;;;5076809;28;20469;-81
2024/03/12 11:42:15;;;;;;;5.80;4.50;;;10.00;99.90;;;;;;5074573;28;21010;-80
2024/03/12 11:44:49;;;;;;;6.80;4.03;;;9.90;99.90;;;;;;5074809;28;20469;-82
2024/03/12 11:47:31;;;;;;;4.10;3.20;;;9.90;99.90;;;;;;5077354;28;20461;-80
2024/03/12 11:50:01;;;;;;;3.57;3.27;;;9.90;99.90;;;;;;5079005;28;20472;-80
2024/03/12 11:52:33;;;;;;;3.87;3.50;;;10.00;99.90;;;;;;5073530;28;20435;-83
2024/03/12 11:55:04;;;;;;;3.50;3.20;;;9.90;99.90;;;;;;5078486;28;20462;-80
2024/03/12 11:57:34;;;;;;;3.37;3.07;;;10.00;99.90;;;;;;5073185;28;20451;-86
2024/03/12 12:00:05;;;;;;;3.40;3.10;;;10.00;99.90;;;;;;5079059;28;20462;-80
2024/03/12 12:02:33;;;;;;;2.70;2.50;;;10.00;99.90;;;;;;5077513;28;20553;-83
2024/03/12 12:05:02;;;;;;;2.50;2.30;;;9.90;99.90;;;;;;5075093;28;20452;-80
2024/03/12 12:07:31;;;;;;;2.20;2.10;;;9.80;99.90;;;;;;5071341;28;20460;-79
2024/03/12 12:09:59;;;;;;;1.60;1.50;;;9.80;99.90;;;;;;5070239;28;20562;-81
2024/03/12 12:12:29;;;;;;;1.87;1.77;;;9.80;99.90;;;;;;5070885;28;20948;-82
2024/03/12 12:14:57;;;;;;;2.40;2.10;;;9.90;99.90;;;;;;5073319;28;20505;-79
2024/03/12 12:17:26;;;;;;;2.30;2.10;;;9.90;99.90;;;;;;5070232;28;20471;-81
2024/03/12 12:20:13;;;;;;;2.00;1.90;;;9.90;99.90;;;;;;5066754;28;20563;-80
2024/03/12 12:22:45;;;;;;;2.07;1.87;;;9.90;99.90;;;;;;5070134;28;20863;-80
2024/03/12 12:25:15;;;;;;;2.20;1.93;;;9.90;99.90;;;;;;5065313;28;20483;-80
2024/03/12 12:27:46;;;;;;;2.70;2.50;;;9.90;99.90;;;;;;5067255;28;20455;-83
2024/03/12 12:30:19;;;;;;;3.40;3.10;;;9.90;99.90;;;;;;5066551;28;20472;-81
2024/03/12 12:32:50;;;;;;;3.97;3.63;;;9.90;99.90;;;;;;5071527;28;20487;-79
2024/03/12 12:35:20;;;;;;;4.50;4.10;;;10.00;99.90;;;;;;5074316;28;20454;-80
2024/03/12 12:37:50;;;;;;;5.17;4.67;;;9.90;99.90;;;;;;5075810;28;20446;-80
2024/03/12 12:40:20;;;;;;;5.30;4.80;;;9.90;99.90;;;;;;5074726;28;20518;-81
2024/03/12 12:42:53;;;;;;;5.00;4.47;;;9.80;99.90;;;;;;5067271;28;20451;-81
2024/03/12 12:45:21;;;;;;;9.97;6.17;;;9.90;99.90;;;;;;5073798;28;20455;-79
2024/03/12 12:47:50;;;;;;;6.80;6.13;;;9.90;99.90;;;;;;5070779;28;20499;-84
2024/03/12 12:50:29;;;;;;;8.00;6.50;;;9.80;99.90;;;;;;5070186;28;20502;-80
2024/03/12 12:53:00;;;;;;;7.23;5.87;;;9.80;99.90;;;;;;5065324;28;20458;-81
2024/03/12 12:55:30;;;;;;;9.00;7.00;;;9.80;99.90;;;;;;5075411;28;20508;-80
2024/03/12 12:58:02;;;;;;;7.90;7.10;;;9.90;99.90;;;;;;5069951;28;20463;-80
2024/03/12 13:00:35;;;;;;;10.60;7.37;;;9.90;99.90;;;;;;5069735;28;21192;-81
2024/03/12 13:03:16;;;;;;;8.97;6.57;;;10.00;99.90;;;;;;5066294;28;20450;-80
2024/03/12 13:05:45;;;;;;;10.80;9.23;;;10.10;99.90;;;;;;5067531;28;20486;-80
2024/03/12 13:08:24;;;;;;;10.03;7.40;;;10.20;99.90;;;;;;5062723;28;20455;-80
2024/03/12 13:10:59;;;;;;;9.83;7.70;;;10.20;99.90;;;;;;5063101;28;20488;-82
2024/03/12 13:13:30;;;;;;;12.63;9.27;;;10.20;99.90;;;;;;5060691;28;20875;-79
2024/03/12 13:16:08;;;;;;;11.73;8.50;;;10.30;99.90;;;;;;5066295;28;20454;-79
2024/03/12 13:18:36;;;;;;;9.70;7.83;;;10.40;99.90;;;;;;5064470;28;20464;-83